Time;durP1;ratioP1;P1;durP2;ratioP2;P2;SDS_P1;SDS_P2;PMS_P1;PMS_P2;Temp;Humidity;BMP_temperature;BMP_pressure;BME280_temperature;BME280_humidity;BME280_pressure;Samples;Min_cycle;Max_cycle;Signal;HPM_P1;HPM_P2
2023/06/27 00:00:19;;;;;;;1.65;1.00;;;19.20;70.50;;;;;;5013265;28;20202;-72
2023/06/27 00:02:48;;;;;;;2.10;1.15;;;19.20;70.70;;;;;;5012883;28;20175;-71
2023/06/27 00:05:14;;;;;;;2.92;1.20;;;19.20;70.60;;;;;;5013406;28;20175;-72
2023/06/27 00:07:42;;;;;;;2.63;1.10;;;19.10;70.80;;;;;;5015335;28;20213;-71
2023/06/27 00:10:11;;;;;;;2.33;1.05;;;19.10;71.30;;;;;;5017262;28;20186;-71
2023/06/27 00:12:37;;;;;;;4.15;1.52;;;19.00;71.40;;;;;;5013021;28;20186;-70
2023/06/27 00:15:06;;;;;;;2.70;1.10;;;19.00;71.40;;;;;;5008656;28;20336;-71
2023/06/27 00:17:37;;;;;;;1.45;1.10;;;18.90;71.70;;;;;;5017222;28;20198;-69
2023/06/27 00:20:05;;;;;;;1.50;1.00;;;18.90;71.70;;;;;;5016506;28;20285;-70
2023/06/27 00:22:31;;;;;;;1.88;1.27;;;18.80;71.80;;;;;;5016978;28;20239;-71
2023/06/27 00:24:58;;;;;;;2.38;1.00;;;18.80;72.20;;;;;;5033379;28;20194;-68
2023/06/27 00:27:24;;;;;;;1.90;1.30;;;18.80;72.30;;;;;;5017296;28;20246;-70
2023/06/27 00:29:50;;;;;;;1.63;1.10;;;18.80;72.50;;;;;;5016763;28;20198;-72
2023/06/27 00:32:18;;;;;;;2.67;1.00;;;18.70;72.50;;;;;;5017456;28;20322;-69
2023/06/27 00:34:53;;;;;;;2.47;1.27;;;18.70;72.70;;;;;;5007984;28;20179;-71
2023/06/27 00:37:18;;;;;;;1.73;1.00;;;18.70;72.90;;;;;;5023837;28;20206;-69
2023/06/27 00:39:49;;;;;;;2.80;1.10;;;18.70;73.10;;;;;;5017033;28;20195;-69
2023/06/27 00:42:14;;;;;;;2.47;1.08;;;18.60;73.50;;;;;;5016002;28;20174;-69
2023/06/27 00:44:40;;;;;;;1.70;1.20;;;18.60;73.20;;;;;;5016776;28;20198;-71
2023/06/27 00:47:08;;;;;;;2.10;1.20;;;18.60;74.10;;;;;;5017239;28;20261;-71
2023/06/27 00:49:34;;;;;;;2.28;1.20;;;18.50;73.50;;;;;;5019204;28;20477;-72
2023/06/27 00:52:02;;;;;;;1.45;0.90;;;18.50;73.70;;;;;;5015691;28;20213;-70
2023/06/27 00:54:31;;;;;;;2.13;1.10;;;18.50;74.20;;;;;;5008567;28;20176;-71
2023/06/27 00:56:57;;;;;;;1.45;1.00;;;18.50;74.40;;;;;;5008132;28;20186;-70
2023/06/27 00:59:27;;;;;;;1.42;1.15;;;18.40;74.10;;;;;;5016385;28;20293;-71
2023/06/27 01:01:52;;;;;;;1.65;1.10;;;18.40;74.80;;;;;;5016420;28;20178;-71
2023/06/27 01:04:18;;;;;;;1.85;0.98;;;18.50;74.70;;;;;;5016625;28;20183;-71
2023/06/27 01:07:10;;;;;;;1.73;1.10;;;18.40;74.80;;;;;;5020150;28;20190;-70
2023/06/27 01:09:51;;;;;;;1.42;1.00;;;18.50;75.90;;;;;;5009562;28;20202;-72
2023/06/27 01:12:38;;;;;;;2.47;1.20;;;18.40;75.80;;;;;;5016403;28;20272;-70
2023/06/27 01:15:05;;;;;;;1.15;0.90;;;18.50;76.30;;;;;;5015954;28;20214;-70
2023/06/27 01:17:37;;;;;;;3.63;1.23;;;18.40;75.20;;;;;;5000731;28;20178;-69
2023/06/27 01:20:05;;;;;;;2.03;1.00;;;18.40;75.80;;;;;;5015222;28;20205;-72
2023/06/27 01:22:38;;;;;;;1.73;1.20;;;18.40;75.50;;;;;;5020844;28;20190;-72
2023/06/27 01:25:07;;;;;;;1.23;1.00;;;18.30;76.00;;;;;;5016710;28;20581;-71
2023/06/27 01:27:35;;;;;;;1.85;1.10;;;18.30;75.70;;;;;;5012933;28;20190;-71
2023/06/27 01:30:04;;;;;;;1.70;1.00;;;18.30;75.80;;;;;;5016078;28;20199;-71
2023/06/27 01:32:44;;;;;;;2.15;1.00;;;18.30;76.40;;;;;;5014175;28;20194;-73
2023/06/27 01:35:20;;;;;;;2.38;1.15;;;18.30;77.00;;;;;;5017640;28;20334;-72
2023/06/27 01:37:51;;;;;;;1.40;1.17;;;18.20;76.30;;;;;;5019900;28;20212;-72
2023/06/27 01:40:23;;;;;;;2.50;1.30;;;18.30;77.10;;;;;;5016085;28;20210;-70
2023/06/27 01:42:57;;;;;;;1.92;1.13;;;18.20;77.20;;;;;;5012657;28;20170;-71
2023/06/27 01:45:23;;;;;;;1.65;1.05;;;18.20;78.20;;;;;;4996111;28;20196;-71
2023/06/27 01:47:52;;;;;;;1.88;1.20;;;18.20;77.00;;;;;;5002326;28;20249;-72
2023/06/27 01:50:22;;;;;;;1.77;1.10;;;18.20;77.10;;;;;;5015620;28;20240;-72
2023/06/27 01:52:48;;;;;;;1.77;1.05;;;18.20;77.60;;;;;;5019319;28;20171;-70
2023/06/27 01:55:13;;;;;;;2.20;1.23;;;18.10;77.50;;;;;;5015247;28;20178;-71
2023/06/27 01:57:42;;;;;;;1.27;1.13;;;18.20;77.80;;;;;;5014936;28;20182;-70
2023/06/27 02:00:08;;;;;;;1.60;1.10;;;18.10;78.20;;;;;;5014888;28;20353;-71
2023/06/27 02:02:33;;;;;;;2.55;1.25;;;18.20;78.10;;;;;;5002021;28;20277;-70
2023/06/27 02:04:59;;;;;;;2.20;1.20;;;18.20;78.40;;;;;;5015092;28;20284;-70
2023/06/27 02:07:29;;;;;;;1.90;1.25;;;18.10;78.40;;;;;;5015269;28;20166;-70
2023/06/27 02:09:55;;;;;;;2.53;1.10;;;18.10;78.70;;;;;;5015522;28;20214;-71
2023/06/27 02:12:25;;;;;;;2.38;1.10;;;18.10;78.70;;;;;;5015528;28;20186;-72
2023/06/27 02:14:51;;;;;;;3.25;1.20;;;18.10;79.20;;;;;;5015232;28;20187;-71
2023/06/27 02:17:18;;;;;;;1.83;1.00;;;18.00;79.00;;;;;;5015481;28;20193;-71
2023/06/27 02:19:44;;;;;;;1.90;1.17;;;18.00;79.40;;;;;;5015334;28;20205;-71
2023/06/27 02:22:12;;;;;;;1.92;1.23;;;18.00;79.70;;;;;;5014625;28;20186;-72
2023/06/27 02:24:39;;;;;;;1.95;1.30;;;18.00;79.80;;;;;;5016661;28;20266;-70
2023/06/27 02:27:05;;;;;;;2.08;1.27;;;18.00;80.10;;;;;;5024198;28;20273;-72
2023/06/27 02:29:31;;;;;;;3.22;1.20;;;18.00;80.10;;;;;;5014561;28;20277;-70
2023/06/27 02:31:59;;;;;;;2.10;1.20;;;18.00;80.30;;;;;;5014969;28;20185;-72
2023/06/27 02:34:24;;;;;;;1.65;1.20;;;18.00;80.60;;;;;;5010354;28;20285;-72
2023/06/27 02:36:50;;;;;;;1.65;1.20;;;17.90;80.70;;;;;;5014823;28;20206;-69
2023/06/27 02:39:15;;;;;;;1.67;1.10;;;17.90;80.80;;;;;;5014932;28;20205;-72
2023/06/27 02:41:41;;;;;;;2.35;1.15;;;17.90;80.80;;;;;;5008359;28;20207;-69
2023/06/27 02:44:09;;;;;;;2.28;1.17;;;17.90;81.00;;;;;;5008398;28;20183;-71
2023/06/27 02:46:35;;;;;;;1.85;1.20;;;17.90;81.80;;;;;;4995331;28;20206;-72
2023/06/27 02:49:01;;;;;;;2.42;1.15;;;17.90;81.40;;;;;;5017534;28;20215;-72
2023/06/27 02:51:28;;;;;;;3.50;1.30;;;17.80;81.40;;;;;;5004815;28;20221;-73
2023/06/27 02:53:54;;;;;;;1.77;1.15;;;17.80;81.70;;;;;;4995960;28;20207;-71
2023/06/27 02:56:19;;;;;;;1.90;1.30;;;17.80;82.00;;;;;;5005817;28;20191;-72
2023/06/27 02:58:45;;;;;;;2.13;1.17;;;17.80;82.30;;;;;;5013592;28;20213;-71
2023/06/27 03:01:14;;;;;;;2.28;1.20;;;17.70;82.30;;;;;;5011974;28;20175;-71
2023/06/27 03:03:45;;;;;;;2.45;1.25;;;17.70;82.40;;;;;;5014441;28;20191;-72
2023/06/27 03:06:11;;;;;;;1.75;1.20;;;17.70;82.90;;;;;;5014087;28;20208;-72
2023/06/27 03:08:39;;;;;;;1.27;1.00;;;17.70;82.70;;;;;;5009951;28;20183;-72
2023/06/27 03:11:05;;;;;;;3.28;1.40;;;17.70;83.00;;;;;;5013775;28;20178;-72
2023/06/27 03:13:33;;;;;;;1.83;1.35;;;17.70;83.00;;;;;;4998686;28;20402;-71
2023/06/27 03:16:01;;;;;;;2.05;1.30;;;17.70;83.50;;;;;;5013863;28;20437;-72
2023/06/27 03:18:27;;;;;;;1.85;1.20;;;17.70;83.40;;;;;;5014479;28;20167;-71
2023/06/27 03:20:52;;;;;;;3.40;1.10;;;17.70;83.70;;;;;;5013180;28;20301;-72
2023/06/27 03:23:18;;;;;;;4.50;1.30;;;17.70;83.90;;;;;;5010823;28;20245;-72
2023/06/27 03:25:44;;;;;;;4.05;1.75;;;17.60;84.10;;;;;;5017343;28;20179;-73
2023/06/27 03:28:09;;;;;;;3.30;1.45;;;17.60;84.30;;;;;;5009276;28;20190;-72
2023/06/27 03:30:35;;;;;;;2.08;1.10;;;17.60;84.40;;;;;;5013260;28;20296;-72
2023/06/27 03:33:00;;;;;;;1.98;1.10;;;17.60;85.20;;;;;;5014388;28;20198;-71
2023/06/27 03:35:26;;;;;;;2.13;1.20;;;17.60;84.70;;;;;;5004988;28;20189;-72
2023/06/27 03:37:52;;;;;;;1.35;1.10;;;17.60;84.90;;;;;;5013965;28;20175;-72
2023/06/27 03:40:20;;;;;;;7.57;1.40;;;17.60;85.00;;;;;;5013880;28;20214;-71
2023/06/27 03:42:46;;;;;;;3.80;1.35;;;17.70;85.40;;;;;;5013375;28;20182;-72
2023/06/27 03:45:11;;;;;;;2.28;1.33;;;17.70;85.40;;;;;;5014376;28;20257;-71
2023/06/27 03:47:38;;;;;;;2.63;1.27;;;17.70;85.40;;;;;;5010123;28;20192;-72
2023/06/27 03:50:06;;;;;;;2.85;1.20;;;17.70;85.60;;;;;;5016770;28;20190;-72
2023/06/27 03:52:34;;;;;;;2.67;1.50;;;17.70;86.00;;;;;;5015776;28;20206;-80
2023/06/27 03:54:59;;;;;;;1.42;1.15;;;17.70;85.70;;;;;;5014451;28;20178;-78
2023/06/27 03:57:27;;;;;;;1.58;1.30;;;17.70;85.90;;;;;;5010659;28;20237;-79
2023/06/27 03:59:55;;;;;;;2.78;1.30;;;17.70;86.00;;;;;;5014106;28;20245;-78
2023/06/27 04:02:27;;;;;;;1.90;1.13;;;17.80;86.60;;;;;;5015196;28;20190;-77
2023/06/27 04:04:52;;;;;;;1.80;1.20;;;17.80;86.20;;;;;;5013776;28;20175;-81
2023/06/27 04:07:18;;;;;;;2.30;1.40;;;17.80;86.40;;;;;;5015564;28;20175;-79
2023/06/27 04:09:44;;;;;;;1.70;1.08;;;17.80;86.40;;;;;;5013949;28;20187;-76
2023/06/27 04:12:09;;;;;;;1.80;1.20;;;17.80;86.50;;;;;;5010745;28;20202;-77
2023/06/27 04:14:35;;;;;;;2.50;1.25;;;17.90;86.70;;;;;;5012433;28;20249;-79
2023/06/27 04:17:00;;;;;;;2.28;1.10;;;17.90;86.90;;;;;;5013935;28;20212;-79
2023/06/27 04:19:28;;;;;;;1.95;1.17;;;17.90;87.00;;;;;;5010499;28;20207;-80
2023/06/27 04:21:54;;;;;;;3.55;1.25;;;17.90;87.40;;;;;;5015226;28;20206;-78
2023/06/27 04:24:24;;;;;;;3.13;1.20;;;17.90;87.10;;;;;;5001032;28;20178;-79
2023/06/27 04:26:52;;;;;;;2.15;1.30;;;17.90;87.60;;;;;;5004374;28;20175;-80
2023/06/27 04:29:20;;;;;;;2.10;1.40;;;17.90;87.40;;;;;;5007322;28;20183;-80
2023/06/27 04:31:46;;;;;;;3.08;1.40;;;18.00;87.60;;;;;;5007519;28;20206;-78
2023/06/27 04:34:13;;;;;;;2.47;1.38;;;18.00;87.70;;;;;;5010367;28;20190;-79
2023/06/27 04:36:41;;;;;;;3.30;1.33;;;18.00;87.90;;;;;;5013869;28;20171;-80
2023/06/27 04:39:08;;;;;;;2.10;1.20;;;18.00;88.50;;;;;;5019747;28;20203;-79
2023/06/27 04:41:34;;;;;;;2.03;1.20;;;18.00;88.20;;;;;;5008891;28;20179;-74
2023/06/27 04:44:04;;;;;;;2.28;1.20;;;18.00;88.10;;;;;;5012126;28;20396;-75
2023/06/27 04:46:32;;;;;;;2.50;1.30;;;18.00;88.30;;;;;;5014714;28;20163;-78
2023/06/27 04:49:00;;;;;;;1.77;1.17;;;18.00;88.20;;;;;;5011226;28;20194;-78
2023/06/27 04:51:27;;;;;;;3.92;1.60;;;18.00;88.40;;;;;;5005510;28;20294;-78
2023/06/27 04:53:58;;;;;;;2.00;1.33;;;18.00;88.50;;;;;;5013777;28;20265;-77
2023/06/27 04:56:25;;;;;;;2.15;1.33;;;18.10;88.90;;;;;;5016000;28;20208;-80
2023/06/27 04:58:53;;;;;;;2.40;1.42;;;18.10;88.70;;;;;;5017048;28;20233;-79
2023/06/27 05:01:19;;;;;;;3.08;1.42;;;18.10;88.70;;;;;;5017010;28;20174;-77
2023/06/27 05:03:45;;;;;;;3.53;1.58;;;18.10;88.80;;;;;;5017275;28;20190;-79
2023/06/27 05:06:14;;;;;;;1.95;1.13;;;18.10;89.00;;;;;;5016999;28;20167;-74
2023/06/27 05:08:40;;;;;;;2.72;1.30;;;18.10;89.10;;;;;;5016727;28;20167;-80
2023/06/27 05:11:05;;;;;;;2.38;1.27;;;18.10;89.00;;;;;;5005109;28;20205;-78
2023/06/27 05:13:33;;;;;;;4.40;1.40;;;18.20;89.20;;;;;;5015385;28;20179;-74
2023/06/27 05:15:59;;;;;;;2.92;1.35;;;18.20;89.30;;;;;;5016610;28;20195;-76
2023/06/27 05:18:25;;;;;;;1.92;1.13;;;18.20;89.60;;;;;;5033121;28;20186;-78
2023/06/27 05:20:54;;;;;;;2.30;1.25;;;18.20;89.70;;;;;;5016534;28;20173;-74
2023/06/27 05:23:21;;;;;;;4.18;1.60;;;18.30;90.40;;;;;;5010966;28;20207;-79
2023/06/27 05:25:47;;;;;;;3.55;1.40;;;18.30;90.10;;;;;;5011882;28;20182;-79
2023/06/27 05:28:15;;;;;;;2.70;1.30;;;18.30;90.10;;;;;;5016054;28;20182;-73
2023/06/27 05:30:43;;;;;;;1.73;1.30;;;18.40;90.10;;;;;;5005097;28;20252;-79
2023/06/27 05:33:08;;;;;;;3.55;1.42;;;18.40;90.10;;;;;;5016209;28;20252;-77
2023/06/27 05:35:36;;;;;;;2.33;1.20;;;18.50;90.20;;;;;;5017876;28;20182;-77
2023/06/27 05:38:02;;;;;;;3.28;1.40;;;18.60;90.20;;;;;;5013808;28;20274;-75
2023/06/27 05:40:29;;;;;;;2.45;1.33;;;18.50;90.30;;;;;;5008389;28;20294;-75
2023/06/27 05:42:54;;;;;;;2.13;1.17;;;18.70;90.40;;;;;;5011592;28;20174;-77
2023/06/27 05:45:22;;;;;;;2.33;1.50;;;18.70;90.40;;;;;;5015432;28;20178;-76
2023/06/27 05:47:48;;;;;;;4.07;1.70;;;18.70;90.40;;;;;;5013731;28;20230;-76
2023/06/27 05:50:13;;;;;;;2.25;1.23;;;18.80;90.40;;;;;;5016141;28;20205;-78
2023/06/27 05:52:39;;;;;;;2.70;1.48;;;18.80;90.40;;;;;;5015410;28;20214;-77
2023/06/27 05:55:05;;;;;;;3.22;1.27;;;18.90;90.50;;;;;;5015671;28;20276;-79
2023/06/27 05:57:33;;;;;;;4.15;1.45;;;18.90;90.50;;;;;;5015338;28;20183;-78
2023/06/27 05:59:59;;;;;;;1.80;1.40;;;18.90;90.50;;;;;;5016002;28;20217;-77
2023/06/27 06:02:24;;;;;;;2.17;1.10;;;19.00;90.50;;;;;;5015133;28;20174;-79
2023/06/27 06:04:50;;;;;;;3.10;1.42;;;19.00;90.50;;;;;;5015387;28;20167;-79
2023/06/27 06:07:15;;;;;;;3.30;1.30;;;19.00;90.70;;;;;;5015453;28;20186;-81
2023/06/27 06:09:43;;;;;;;2.70;1.30;;;19.10;90.70;;;;;;5013904;28;20174;-82
2023/06/27 06:12:11;;;;;;;2.45;1.20;;;19.10;90.70;;;;;;5032496;28;20221;-79
2023/06/27 06:14:37;;;;;;;3.65;1.20;;;19.20;90.70;;;;;;5015650;28;20189;-74
2023/06/27 06:17:05;;;;;;;2.53;1.17;;;19.20;90.70;;;;;;5015980;28;20179;-72
2023/06/27 06:19:33;;;;;;;2.88;1.10;;;19.30;90.80;;;;;;5011259;28;20195;-70
2023/06/27 06:22:01;;;;;;;3.85;1.50;;;19.30;90.90;;;;;;5012326;28;20179;-71
2023/06/27 06:24:29;;;;;;;3.50;1.38;;;19.40;90.80;;;;;;5038457;28;20204;-70
2023/06/27 06:26:55;;;;;;;2.78;1.30;;;19.40;90.90;;;;;;5016161;28;20178;-71
2023/06/27 06:29:24;;;;;;;3.50;1.77;;;19.50;90.90;;;;;;5014986;28;20194;-70
2023/06/27 06:31:49;;;;;;;6.50;1.90;;;19.50;90.90;;;;;;5014869;28;20178;-71
2023/06/27 06:34:24;;;;;;;4.40;1.88;;;19.60;90.90;;;;;;5015051;28;20185;-71
2023/06/27 06:36:50;;;;;;;3.72;1.45;;;19.60;91.00;;;;;;5014602;28;20209;-69
2023/06/27 06:39:15;;;;;;;3.22;1.30;;;19.60;90.80;;;;;;5014552;28;20236;-71
2023/06/27 06:41:41;;;;;;;3.13;1.35;;;19.70;90.90;;;;;;5028198;28;20191;-68
2023/06/27 06:44:08;;;;;;;2.20;1.27;;;19.70;91.00;;;;;;5010627;28;20174;-69
2023/06/27 06:46:43;;;;;;;3.40;1.45;;;19.80;91.00;;;;;;5014954;28;20183;-72
2023/06/27 06:49:09;;;;;;;3.22;1.30;;;19.80;91.10;;;;;;5008005;28;20219;-72
2023/06/27 06:51:38;;;;;;;4.25;1.50;;;19.90;91.10;;;;;;5011061;28;20286;-73
2023/06/27 06:54:03;;;;;;;2.53;1.38;;;19.90;91.00;;;;;;5013272;28;20261;-71
2023/06/27 06:56:29;;;;;;;2.92;1.50;;;19.90;91.00;;;;;;5014503;28;20252;-71
2023/06/27 06:58:55;;;;;;;2.83;1.20;;;20.00;91.00;;;;;;5014438;28;20210;-68
2023/06/27 07:01:20;;;;;;;5.45;1.38;;;20.00;91.00;;;;;;5010541;28;20194;-70
2023/06/27 07:03:46;;;;;;;2.53;1.42;;;20.10;91.10;;;;;;4994779;28;20210;-71
2023/06/27 07:06:15;;;;;;;3.58;1.45;;;20.10;91.10;;;;;;5008150;28;20426;-72
2023/06/27 07:08:40;;;;;;;2.70;1.60;;;20.10;91.10;;;;;;5012984;28;20170;-70
2023/06/27 07:11:08;;;;;;;3.03;1.25;;;20.20;91.10;;;;;;5009744;28;20189;-70
2023/06/27 07:13:34;;;;;;;3.35;1.45;;;20.20;91.10;;;;;;5014009;28;20186;-72
2023/06/27 07:16:02;;;;;;;2.17;1.20;;;20.20;91.10;;;;;;5014357;28;20182;-71
2023/06/27 07:18:30;;;;;;;4.47;1.20;;;20.30;91.20;;;;;;5013088;28;20229;-71
2023/06/27 07:20:58;;;;;;;2.83;1.40;;;20.30;91.20;;;;;;5023865;28;20224;-70
2023/06/27 07:23:24;;;;;;;4.65;1.40;;;20.40;91.20;;;;;;5013642;28;20186;-70
2023/06/27 07:25:49;;;;;;;1.98;1.13;;;20.50;91.20;;;;;;4995674;28;20172;-71
2023/06/27 07:28:20;;;;;;;3.53;1.27;;;20.60;91.30;;;;;;4994414;28;20219;-70
2023/06/27 07:30:46;;;;;;;2.55;1.40;;;20.60;91.20;;;;;;5004059;28;20182;-71
2023/06/27 07:33:16;;;;;;;3.90;1.38;;;20.70;91.20;;;;;;5013747;28;20174;-69
2023/06/27 07:35:42;;;;;;;3.03;1.30;;;20.80;91.10;;;;;;5013839;28;20202;-70
2023/06/27 07:38:08;;;;;;;2.20;1.33;;;20.80;91.00;;;;;;5016759;28;20186;-72
2023/06/27 07:40:33;;;;;;;4.00;1.70;;;20.90;91.00;;;;;;5013945;28;20191;-72
2023/06/27 07:42:59;;;;;;;2.08;1.38;;;21.00;90.60;;;;;;5014169;28;20185;-72
2023/06/27 07:45:26;;;;;;;3.97;1.20;;;21.00;90.40;;;;;;5010854;28;20191;-71
2023/06/27 07:47:55;;;;;;;6.07;1.20;;;21.00;90.30;;;;;;5011927;28;20258;-70
2023/06/27 07:50:20;;;;;;;1.85;1.02;;;21.10;90.40;;;;;;5013652;28;20198;-70
2023/06/27 07:52:46;;;;;;;2.40;1.10;;;21.10;90.30;;;;;;5010965;28;20179;-69
2023/06/27 07:55:14;;;;;;;3.33;1.20;;;21.20;90.40;;;;;;5013780;28;20178;-71
2023/06/27 07:57:42;;;;;;;2.35;1.20;;;21.30;90.20;;;;;;5013638;28;20174;-70
2023/06/27 08:00:11;;;;;;;2.35;1.40;;;21.30;90.20;;;;;;5013477;28;20206;-71
2023/06/27 08:02:37;;;;;;;2.25;1.33;;;21.40;90.20;;;;;;5013810;28;20232;-72
2023/06/27 08:05:02;;;;;;;3.53;1.63;;;21.40;90.20;;;;;;5013850;28;20174;-74
2023/06/27 08:07:28;;;;;;;2.42;1.10;;;21.50;90.10;;;;;;5013309;28;20289;-72
2023/06/27 08:09:54;;;;;;;5.25;1.38;;;21.60;90.00;;;;;;5013655;28;20505;-72
2023/06/27 08:12:24;;;;;;;2.22;1.20;;;21.70;90.00;;;;;;5012994;28;20215;-68
2023/06/27 08:14:49;;;;;;;3.65;1.05;;;21.70;89.60;;;;;;5013748;28;20285;-70
2023/06/27 08:17:15;;;;;;;2.42;1.23;;;21.80;89.80;;;;;;5013342;28;20401;-74
2023/06/27 08:19:43;;;;;;;2.17;1.02;;;21.90;89.70;;;;;;5013671;28;20198;-70
2023/06/27 08:22:09;;;;;;;3.42;1.40;;;21.90;89.50;;;;;;4998728;28;20183;-72
2023/06/27 08:24:37;;;;;;;1.77;1.00;;;22.00;89.50;;;;;;4993966;28;20254;-71
2023/06/27 08:27:03;;;;;;;4.38;1.23;;;22.10;89.20;;;;;;5011474;28;20170;-71
2023/06/27 08:29:30;;;;;;;4.00;1.13;;;22.20;89.20;;;;;;5015915;28;24127;-71
2023/06/27 08:31:59;;;;;;;3.63;1.15;;;22.30;89.00;;;;;;5017216;28;20210;-71
2023/06/27 08:34:26;;;;;;;2.97;1.40;;;22.40;88.60;;;;;;5023173;28;20222;-72
2023/06/27 08:36:51;;;;;;;2.55;1.23;;;22.50;88.40;;;;;;5017374;28;20183;-71
2023/06/27 08:39:17;;;;;;;2.30;1.33;;;22.60;87.90;;;;;;5016817;28;20213;-71
2023/06/27 08:41:47;;;;;;;3.38;1.30;;;22.70;87.80;;;;;;5017584;28;20171;-72
2023/06/27 08:44:15;;;;;;;2.33;1.10;;;22.70;87.00;;;;;;5017293;28;20175;-71
2023/06/27 08:46:44;;;;;;;3.50;1.20;;;22.90;87.00;;;;;;5000479;28;20171;-71
2023/06/27 08:49:12;;;;;;;2.28;1.10;;;23.00;86.30;;;;;;5016977;28;20175;-72
2023/06/27 08:51:40;;;;;;;2.85;1.10;;;23.10;85.50;;;;;;5016725;28;20189;-72
2023/06/27 08:54:19;;;;;;;1.85;1.10;;;23.10;85.40;;;;;;5016628;28;20175;-71
2023/06/27 08:56:45;;;;;;;5.10;1.23;;;23.20;84.70;;;;;;4998241;28;20245;-71
2023/06/27 08:59:16;;;;;;;2.58;1.15;;;23.30;85.10;;;;;;5016638;28;20194;-72
2023/06/27 09:01:44;;;;;;;2.17;1.10;;;23.40;84.60;;;;;;5016973;28;20180;-71
2023/06/27 09:04:12;;;;;;;2.10;1.13;;;23.50;84.20;;;;;;5016713;28;20200;-71
2023/06/27 09:06:46;;;;;;;2.15;0.93;;;23.60;84.30;;;;;;5002494;28;20180;-71
2023/06/27 09:09:15;;;;;;;2.70;1.20;;;23.70;84.10;;;;;;5000287;28;20187;-70
2023/06/27 09:11:43;;;;;;;2.38;0.82;;;23.80;83.80;;;;;;5016512;28;20297;-71
2023/06/27 09:14:13;;;;;;;2.92;1.27;;;23.90;82.60;;;;;;5015890;28;20213;-70
2023/06/27 09:16:42;;;;;;;4.03;1.30;;;23.90;82.30;;;;;;5016769;28;20163;-70
2023/06/27 09:19:10;;;;;;;2.75;1.00;;;24.00;81.90;;;;;;5016333;28;20210;-71
2023/06/27 09:21:45;;;;;;;2.85;1.10;;;24.00;81.30;;;;;;5016604;28;20460;-73
2023/06/27 09:24:14;;;;;;;4.00;1.10;;;24.10;81.00;;;;;;5016613;28;20173;-71
2023/06/27 09:26:39;;;;;;;3.38;1.25;;;24.10;80.00;;;;;;5016295;28;20175;-72
2023/06/27 09:29:05;;;;;;;2.45;1.10;;;24.10;80.30;;;;;;5016399;28;20201;-68
2023/06/27 09:31:32;;;;;;;2.03;1.08;;;24.20;80.00;;;;;;5016929;28;20175;-72
2023/06/27 09:34:13;;;;;;;1.90;1.00;;;24.30;79.80;;;;;;5016206;28;20233;-69
2023/06/27 09:36:42;;;;;;;2.53;1.00;;;24.30;78.50;;;;;;5015922;28;20284;-72
2023/06/27 09:39:08;;;;;;;2.78;1.38;;;24.30;79.10;;;;;;5016001;28;20210;-72
2023/06/27 09:41:47;;;;;;;2.28;0.90;;;24.40;79.50;;;;;;5015124;28;20266;-71
2023/06/27 09:44:16;;;;;;;3.00;1.10;;;24.40;78.60;;;;;;5016298;28;20209;-72
2023/06/27 09:46:47;;;;;;;3.75;1.20;;;24.50;78.80;;;;;;5015462;28;20182;-71
2023/06/27 09:49:16;;;;;;;3.60;1.40;;;24.50;77.90;;;;;;5015905;28;20240;-72
2023/06/27 09:51:53;;;;;;;2.58;1.05;;;24.50;77.70;;;;;;5016701;28;20206;-71
2023/06/27 09:54:26;;;;;;;1.75;1.02;;;24.50;76.30;;;;;;5016237;28;20178;-71
2023/06/27 09:56:52;;;;;;;2.22;1.27;;;24.50;77.30;;;;;;5015629;28;20202;-70
2023/06/27 09:59:20;;;;;;;2.13;1.20;;;24.50;77.70;;;;;;5012092;28;20565;-70
2023/06/27 10:01:51;;;;;;;2.80;1.40;;;24.50;77.00;;;;;;5024544;28;20206;-69
2023/06/27 10:04:19;;;;;;;3.47;1.30;;;24.50;77.50;;;;;;5014995;28;20182;-68
2023/06/27 10:06:47;;;;;;;1.95;0.80;;;24.50;76.60;;;;;;5015558;28;20194;-69
2023/06/27 10:09:15;;;;;;;2.03;0.93;;;24.60;77.10;;;;;;5015199;28;20191;-69
2023/06/27 10:11:41;;;;;;;2.80;1.10;;;24.60;76.40;;;;;;5015267;28;20183;-68
2023/06/27 10:14:07;;;;;;;3.83;1.50;;;24.60;76.10;;;;;;4996593;28;20175;-70
2023/06/27 10:16:34;;;;;;;2.00;1.05;;;24.60;75.80;;;;;;5002864;28;20203;-69
2023/06/27 10:19:03;;;;;;;2.47;1.20;;;24.70;75.10;;;;;;5015277;28;20301;-71
2023/06/27 10:21:29;;;;;;;1.80;1.00;;;24.70;74.00;;;;;;5010115;28;20270;-71
2023/06/27 10:23:59;;;;;;;1.92;1.00;;;24.70;73.80;;;;;;5014350;28;20199;-69
2023/06/27 10:26:28;;;;;;;2.05;0.90;;;24.70;72.30;;;;;;5014920;28;20182;-70
2023/06/27 10:28:54;;;;;;;2.50;1.20;;;24.70;71.90;;;;;;5014760;28;20179;-72
2023/06/27 10:31:40;;;;;;;2.60;1.05;;;24.70;72.20;;;;;;5014886;28;20422;-71
2023/06/27 10:34:11;;;;;;;2.67;1.00;;;24.70;70.10;;;;;;5014612;28;20209;-70
2023/06/27 10:37:01;;;;;;;1.88;1.10;;;24.80;71.10;;;;;;5014770;28;20317;-71
2023/06/27 10:39:31;;;;;;;3.28;1.00;;;24.90;70.20;;;;;;5015008;28;20210;-72
2023/06/27 10:42:06;;;;;;;2.42;1.42;;;25.00;70.20;;;;;;5014896;28;20206;-72
2023/06/27 10:44:35;;;;;;;2.30;1.10;;;25.20;70.50;;;;;;5005438;28;20258;-70
2023/06/27 10:47:24;;;;;;;3.17;1.20;;;25.20;70.50;;;;;;5013908;28;20174;-69
2023/06/27 10:49:56;;;;;;;2.28;1.10;;;25.40;67.90;;;;;;5030920;28;20225;-68
2023/06/27 10:52:24;;;;;;;3.45;1.20;;;25.40;68.90;;;;;;5014373;28;20171;-70
2023/06/27 10:55:29;;;;;;;5.22;1.35;;;25.40;68.50;;;;;;5014411;28;20220;-71
2023/06/27 10:58:10;;;;;;;2.42;1.30;;;25.40;68.30;;;;;;4939197;29;20495;-71
2023/06/27 11:00:40;;;;;;;4.40;1.50;;;25.30;67.50;;;;;;4955056;29;20204;-70
2023/06/27 11:03:09;;;;;;;4.88;1.95;;;25.20;67.30;;;;;;4971453;28;20205;-70
2023/06/27 11:05:44;;;;;;;2.65;1.23;;;25.10;66.80;;;;;;5013940;28;20174;-71
2023/06/27 11:08:14;;;;;;;2.38;1.08;;;25.20;66.60;;;;;;5027646;28;20241;-66
2023/06/27 11:11:05;;;;;;;2.20;1.10;;;25.20;67.60;;;;;;4994795;28;20171;-71
2023/06/27 11:13:37;;;;;;;2.67;1.27;;;25.30;66.80;;;;;;4994859;28;20175;-70
2023/06/27 11:16:04;;;;;;;2.38;1.15;;;25.30;66.90;;;;;;5012072;28;20238;-67
2023/06/27 11:18:31;;;;;;;2.83;1.20;;;25.30;66.90;;;;;;5013998;28;20241;-71
2023/06/27 11:21:00;;;;;;;6.32;1.40;;;25.30;66.60;;;;;;5030287;28;20228;-70
2023/06/27 11:23:29;;;;;;;3.15;1.20;;;25.30;66.80;;;;;;5030271;28;20264;-71
2023/06/27 11:25:55;;;;;;;2.35;1.10;;;25.30;66.20;;;;;;5013694;28;20266;-68
2023/06/27 11:28:24;;;;;;;2.40;1.20;;;25.40;67.50;;;;;;5013802;28;20289;-71
2023/06/27 11:30:56;;;;;;;2.15;1.00;;;25.50;68.30;;;;;;5013542;28;20186;-71
2023/06/27 11:33:23;;;;;;;1.70;1.10;;;25.70;68.60;;;;;;5014057;28;20182;-71
2023/06/27 11:35:49;;;;;;;4.32;1.20;;;25.90;68.40;;;;;;5013776;28;20460;-69
2023/06/27 11:38:17;;;;;;;2.85;1.10;;;26.10;67.50;;;;;;5014732;28;20187;-72
2023/06/27 11:40:49;;;;;;;3.05;1.52;;;26.10;66.60;;;;;;5014273;28;20285;-70
2023/06/27 11:43:18;;;;;;;3.15;1.20;;;26.20;66.00;;;;;;5013673;28;20194;-72
2023/06/27 11:45:52;;;;;;;3.50;1.38;;;26.30;66.00;;;;;;5030428;28;20182;-71
2023/06/27 11:48:21;;;;;;;4.60;1.42;;;26.40;64.60;;;;;;5013621;28;20170;-70
2023/06/27 11:50:56;;;;;;;2.15;1.17;;;26.40;64.80;;;;;;5013717;28;20195;-70
2023/06/27 11:53:27;;;;;;;3.05;1.20;;;26.30;63.10;;;;;;5010496;28;20201;-72
2023/06/27 11:55:56;;;;;;;2.90;1.48;;;26.20;62.60;;;;;;4999845;28;20171;-70
2023/06/27 11:58:31;;;;;;;2.38;1.00;;;26.10;63.00;;;;;;5014040;28;20178;-71
2023/06/27 12:00:58;;;;;;;2.85;1.17;;;26.10;63.80;;;;;;5014233;28;20198;-73
2023/06/27 12:03:29;;;;;;;3.10;1.20;;;26.20;64.20;;;;;;5014586;28;20273;-72
2023/06/27 12:05:57;;;;;;;1.77;1.05;;;26.30;62.80;;;;;;5017949;28;20193;-72
2023/06/27 12:08:28;;;;;;;3.33;1.33;;;26.30;63.10;;;;;;5017945;28;20390;-69
2023/06/27 12:10:57;;;;;;;3.13;1.10;;;26.30;61.90;;;;;;5017953;28;20174;-69
2023/06/27 12:13:41;;;;;;;3.53;1.48;;;26.40;62.70;;;;;;5017852;28;20171;-70
2023/06/27 12:16:21;;;;;;;2.50;1.30;;;26.50;62.20;;;;;;5017219;28;20206;-71
2023/06/27 12:18:46;;;;;;;1.40;1.00;;;26.50;62.30;;;;;;5017481;28;20174;-70
2023/06/27 12:21:12;;;;;;;2.50;1.10;;;26.60;62.60;;;;;;5017153;28;20320;-70
2023/06/27 12:23:37;;;;;;;2.08;1.08;;;26.70;62.60;;;;;;5017330;28;20205;-71
2023/06/27 12:26:08;;;;;;;4.30;1.08;;;26.80;62.10;;;;;;5016946;28;20194;-70
2023/06/27 12:28:33;;;;;;;2.65;1.10;;;26.90;62.20;;;;;;5016781;28;20182;-70
2023/06/27 12:31:02;;;;;;;3.55;0.88;;;27.10;62.20;;;;;;5017263;28;20178;-73
2023/06/27 12:33:29;;;;;;;5.18;1.23;;;27.30;61.30;;;;;;5016753;28;20182;-67
2023/06/27 12:35:57;;;;;;;1.58;1.00;;;27.40;60.70;;;;;;5017224;28;20197;-71
2023/06/27 12:38:25;;;;;;;2.13;1.00;;;27.50;60.40;;;;;;5016925;28;20186;-70
2023/06/27 12:40:50;;;;;;;2.47;1.13;;;27.60;60.70;;;;;;5016192;28;20377;-69
2023/06/27 12:43:16;;;;;;;1.60;0.95;;;27.70;59.00;;;;;;5016497;28;20189;-68
2023/06/27 12:45:44;;;;;;;2.45;1.08;;;27.80;58.80;;;;;;5013608;28;20187;-71
2023/06/27 12:48:09;;;;;;;2.75;1.10;;;27.80;58.50;;;;;;5029548;28;20202;-68
2023/06/27 12:50:35;;;;;;;2.60;1.30;;;27.90;58.40;;;;;;5016544;28;20204;-70
2023/06/27 12:53:01;;;;;;;4.03;1.25;;;28.00;58.30;;;;;;5016969;28;20189;-70